Wetterdaten: Woche 05.12.11 - 11.12.11 (KW49)
Datum Zeit Temp. Innen Temp. Aussen UV X Diff Temp. Feuchte Inne Feuchte Auss Sonnenschein Luftdruck Regen ab 0,1 Wind Sonnenschein T Regendauer Windben
05.12.2011 00:00 15,2 C 7,1 C 0,0 UV-I 0,0 C 54 % 84 % 0 % 991,6 hPa 1,2 l/m 9,9 km/h (2 Bft) 0,00 h 0,40 h 16,3 km/h (3 Bft)
05.12.2011 01:00 15,0 C 5,4 C 0,0 UV-I 0,0 C 54 % 88 % 0 % 992,2 hPa 0,1 l/m 5,3 km/h (1 Bft) 0,00 h 0,00 h 7,7 km/h (2 Bft)
05.12.2011 02:00 14,9 C 5,3 C 0,0 UV-I 0,0 C 54 % 90 % 0 % 993,3 hPa 0,0 l/m 10,0 km/h (2 Bft) 0,00 h 0,17 h 14,6 km/h (3 Bft)
05.12.2011 03:00 14,8 C 5,3 C 0,0 UV-I 0,0 C 54 % 89 % 0 % 994,5 hPa 0,0 l/m 8,9 km/h (2 Bft) 0,00 h 0,00 h 14,3 km/h (3 Bft)
05.12.2011 04:00 14,6 C 4,9 C 0,0 UV-I 0,0 C 53 % 88 % 0 % 995,5 hPa 0,0 l/m 8,8 km/h (2 Bft) 0,00 h 0,00 h 11,4 km/h (2 Bft)
05.12.2011 05:00 14,4 C 4,6 C 0,0 UV-I 0,0 C 52 % 87 % 0 % 996,7 hPa 0,0 l/m 8,3 km/h (2 Bft) 0,00 h 0,00 h 10,6 km/h (2 Bft)
05.12.2011 06:00 14,4 C 4,4 C 0,0 UV-I 0,0 C 52 % 85 % 0 % 997,8 hPa 0,0 l/m 7,1 km/h (2 Bft) 0,00 h 0,00 h 8,7 km/h (2 Bft)
05.12.2011 07:00 14,2 C 4,1 C 0,0 UV-I 0,0 C 51 % 85 % 0 % 999,1 hPa 0,0 l/m 9,0 km/h (2 Bft) 0,00 h 0,00 h 13,7 km/h (3 Bft)
05.12.2011 08:00 14,0 C 3,8 C 0,0 UV-I 0,0 C 50 % 85 % 0 % 1000,3 hPa 0,0 l/m 8,1 km/h (2 Bft) 0,00 h 0,00 h 10,4 km/h (2 Bft)
05.12.2011 09:00 14,0 C 3,9 C 0,0 UV-I 0,4 C 50 % 85 % 12 % 1000,9 hPa 0,0 l/m 9,7 km/h (2 Bft) 0,10 h 0,00 h 13,6 km/h (3 Bft)
05.12.2011 10:00 13,8 C 4,6 C 0,0 UV-I 2,7 C 50 % 84 % 77 % 1002,0 hPa 0,0 l/m 11,4 km/h (2 Bft) 1,00 h 0,00 h 17,3 km/h (3 Bft)
05.12.2011 11:00 13,9 C 5,4 C 0,2 UV-I 2,3 C 50 % 82 % 66 % 1002,5 hPa 0,0 l/m 12,5 km/h (3 Bft) 0,50 h 0,00 h 15,9 km/h (3 Bft)
05.12.2011 12:00 14,1 C 6,2 C 0,4 UV-I 2,6 C 49 % 79 % 73 % 1002,7 hPa 0,0 l/m 13,3 km/h (3 Bft) 0,63 h 0,00 h 16,9 km/h (3 Bft)
05.12.2011 13:00 14,3 C 6,3 C 0,3 UV-I 0,2 C 48 % 76 % 7 % 1002,6 hPa 0,0 l/m 13,9 km/h (3 Bft) 0,00 h 0,00 h 16,3 km/h (3 Bft)
05.12.2011 14:00 14,3 C 5,1 C 0,0 UV-I 0,0 C 48 % 79 % 0 % 1002,8 hPa 1,0 l/m 10,0 km/h (2 Bft) 0,00 h 0,80 h 14,4 km/h (3 Bft)
05.12.2011 15:00 14,2 C 2,7 C 0,0 UV-I 0,0 C 49 % 87 % 0 % 1002,7 hPa 1,4 l/m 3,5 km/h (1 Bft) 0,00 h 0,97 h 5,4 km/h (1 Bft)
05.12.2011 16:00 14,0 C 2,5 C 0,0 UV-I 0,0 C 50 % 89 % 0 % 1002,8 hPa 3,8 l/m 6,6 km/h (2 Bft) 0,00 h 0,50 h 9,9 km/h (2 Bft)
05.12.2011 17:00 13,7 C 2,6 C 0,0 UV-I 0,0 C 50 % 90 % 0 % 1002,5 hPa 1,0 l/m 12,7 km/h (3 Bft) 0,00 h 0,00 h 19,4 km/h (3 Bft)
05.12.2011 18:00 13,4 C 3,6 C 0,0 UV-I 0,0 C 50 % 87 % 0 % 1002,3 hPa 0,0 l/m 12,8 km/h (3 Bft) 0,00 h 0,00 h 17,2 km/h (3 Bft)
05.12.2011 19:00 13,4 C 3,7 C 0,0 UV-I 0,0 C 50 % 86 % 0 % 1002,6 hPa 0,0 l/m 7,9 km/h (2 Bft) 0,00 h 0,00 h 10,4 km/h (2 Bft)
05.12.2011 20:00 13,4 C 3,5 C 0,0 UV-I 0,0 C 50 % 87 % 0 % 1002,7 hPa 0,0 l/m 6,4 km/h (2 Bft) 0,00 h 0,00 h 9,5 km/h (2 Bft)
05.12.2011 21:00 13,4 C 4,0 C 0,0 UV-I 0,0 C 50 % 88 % 0 % 1002,6 hPa 0,0 l/m 8,5 km/h (2 Bft) 0,00 h 0,00 h 11,0 km/h (2 Bft)
05.12.2011 22:00 13,4 C 4,2 C 0,0 UV-I 0,0 C 51 % 87 % 0 % 1002,9 hPa 0,0 l/m 8,3 km/h (2 Bft) 0,00 h 0,00 h 12,0 km/h (2 Bft)
05.12.2011 23:00 13,3 C 4,2 C 0,0 UV-I 0,0 C 51 % 87 % 0 % 1002,8 hPa 0,0 l/m 9,7 km/h (2 Bft) 0,00 h 0,00 h 12,3 km/h (3 Bft)
06.12.2011 00:00 13,2 C 3,9 C 0,0 UV-I 0,0 C 51 % 87 % 0 % 1002,8 hPa 0,0 l/m 9,6 km/h (2 Bft) 0,00 h 0,00 h 14,7 km/h (3 Bft)
06.12.2011 01:00 13,2 C 4,0 C 0,0 UV-I 0,0 C 51 % 88 % 0 % 1002,9 hPa 0,0 l/m 10,7 km/h (2 Bft) 0,00 h 0,03 h 14,1 km/h (3 Bft)
06.12.2011 02:00 13,2 C 3,9 C 0,0 UV-I 0,0 C 51 % 89 % 0 % 1002,8 hPa 0,0 l/m 9,0 km/h (2 Bft) 0,00 h 0,33 h 10,7 km/h (2 Bft)
06.12.2011 03:00 13,2 C 3,9 C 0,0 UV-I 0,0 C 51 % 89 % 0 % 1002,9 hPa 0,0 l/m 9,8 km/h (2 Bft) 0,00 h 0,00 h 13,8 km/h (3 Bft)
06.12.2011 04:00 13,2 C 3,7 C 0,0 UV-I 0,0 C 51 % 89 % 0 % 1002,5 hPa 0,0 l/m 8,4 km/h (2 Bft) 0,00 h 0,00 h 10,1 km/h (2 Bft)
06.12.2011 05:00 13,2 C 3,6 C 0,0 UV-I 0,0 C 51 % 88 % 0 % 1002,5 hPa 0,0 l/m 9,1 km/h (2 Bft) 0,00 h 0,00 h 11,5 km/h (2 Bft)
06.12.2011 06:00 13,0 C 3,5 C 0,0 UV-I 0,0 C 51 % 88 % 0 % 1002,5 hPa 0,0 l/m 8,6 km/h (2 Bft) 0,00 h 0,00 h 13,0 km/h (3 Bft)
06.12.2011 07:00 13,0 C 3,4 C 0,0 UV-I 0,0 C 51 % 88 % 0 % 1002,6 hPa 0,0 l/m 9,2 km/h (2 Bft) 0,00 h 0,00 h 10,7 km/h (2 Bft)
06.12.2011 08:00 12,9 C 3,3 C 0,0 UV-I 0,0 C 51 % 89 % 0 % 1002,9 hPa 0,0 l/m 8,1 km/h (2 Bft) 0,00 h 0,00 h 11,9 km/h (2 Bft)
06.12.2011 09:00 12,9 C 3,8 C 0,0 UV-I 0,0 C 51 % 89 % 0 % 1003,1 hPa 0,1 l/m 11,1 km/h (2 Bft) 0,00 h 0,53 h 15,7 km/h (3 Bft)
06.12.2011 10:00 12,9 C 4,2 C 0,0 UV-I 0,0 C 51 % 89 % 0 % 1003,1 hPa 0,0 l/m 11,4 km/h (2 Bft) 0,00 h 0,00 h 13,3 km/h (3 Bft)
06.12.2011 11:00 13,1 C 5,2 C 0,1 UV-I 0,0 C 51 % 85 % 0 % 1003,2 hPa 0,0 l/m 12,7 km/h (3 Bft) 0,00 h 0,00 h 16,2 km/h (3 Bft)
06.12.2011 12:00 13,1 C 5,5 C 0,1 UV-I 0,2 C 51 % 83 % 6 % 1003,3 hPa 0,1 l/m 12,7 km/h (3 Bft) 0,00 h 0,10 h 16,1 km/h (3 Bft)
06.12.2011 13:00 13,6 C 6,6 C 0,4 UV-I 2,2 C 51 % 81 % 63 % 1003,2 hPa 0,0 l/m 13,5 km/h (3 Bft) 0,60 h 0,00 h 17,2 km/h (3 Bft)
06.12.2011 14:00 13,9 C 6,5 C 0,3 UV-I 0,0 C 49 % 78 % 0 % 1003,2 hPa 0,0 l/m 12,3 km/h (3 Bft) 0,00 h 0,23 h 14,8 km/h (3 Bft)
06.12.2011 15:00 13,8 C 5,1 C 0,0 UV-I 0,0 C 50 % 82 % 0 % 1003,8 hPa 1,4 l/m 10,0 km/h (2 Bft) 0,00 h 0,93 h 14,0 km/h (3 Bft)
06.12.2011 16:00 13,4 C 4,3 C 0,0 UV-I 0,0 C 51 % 85 % 0 % 1004,0 hPa 0,1 l/m 12,7 km/h (3 Bft) 0,00 h 0,13 h 18,8 km/h (3 Bft)
06.12.2011 17:00 13,2 C 4,1 C 0,0 UV-I 0,0 C 51 % 85 % 0 % 1004,0 hPa 0,1 l/m 7,9 km/h (2 Bft) 0,00 h 0,17 h 10,4 km/h (2 Bft)
06.12.2011 18:00 13,1 C 4,3 C 0,0 UV-I 0,0 C 51 % 85 % 0 % 1004,4 hPa 0,1 l/m 7,6 km/h (2 Bft) 0,00 h 0,43 h 12,0 km/h (2 Bft)
06.12.2011 19:00 13,1 C 4,0 C 0,0 UV-I 0,0 C 51 % 87 % 0 % 1005,1 hPa 0,2 l/m 8,8 km/h (2 Bft) 0,00 h 0,20 h 11,6 km/h (2 Bft)
06.12.2011 20:00 13,1 C 4,2 C 0,0 UV-I 0,0 C 51 % 86 % 0 % 1005,4 hPa 0,0 l/m 6,0 km/h (2 Bft) 0,00 h 0,00 h 9,8 km/h (2 Bft)
06.12.2011 21:00 13,2 C 4,3 C 0,0 UV-I 0,0 C 51 % 85 % 0 % 1005,5 hPa 0,0 l/m 4,5 km/h (1 Bft) 0,00 h 0,00 h 7,5 km/h (2 Bft)
06.12.2011 22:00 13,2 C 4,4 C 0,0 UV-I 0,0 C 50 % 84 % 0 % 1005,5 hPa 0,0 l/m 4,9 km/h (1 Bft) 0,00 h 0,00 h 6,9 km/h (2 Bft)
06.12.2011 23:00 13,2 C 5,0 C 0,0 UV-I 0,0 C 50 % 84 % 0 % 1005,4 hPa 0,0 l/m 6,8 km/h (2 Bft) 0,00 h 0,00 h 10,3 km/h (2 Bft)
07.12.2011 00:00 13,2 C 5,4 C 0,0 UV-I 0,0 C 51 % 84 % 0 % 1004,7 hPa 0,0 l/m 6,3 km/h (2 Bft) 0,00 h 0,13 h 9,8 km/h (2 Bft)
07.12.2011 01:00 13,2 C 5,3 C 0,0 UV-I 0,0 C 51 % 86 % 0 % 1004,1 hPa 1,1 l/m 5,3 km/h (1 Bft) 0,00 h 0,53 h 8,8 km/h (2 Bft)
07.12.2011 02:00 13,4 C 5,1 C 0,0 UV-I 0,0 C 53 % 89 % 0 % 1003,1 hPa 0,1 l/m 6,3 km/h (2 Bft) 0,00 h 0,17 h 10,2 km/h (2 Bft)
07.12.2011 03:00 13,2 C 5,7 C 0,0 UV-I 0,0 C 53 % 89 % 0 % 1002,4 hPa 0,0 l/m 7,5 km/h (2 Bft) 0,00 h 0,00 h 11,3 km/h (2 Bft)
07.12.2011 04:00 13,3 C 6,1 C 0,0 UV-I 0,0 C 54 % 89 % 0 % 1001,3 hPa 0,0 l/m 7,6 km/h (2 Bft) 0,00 h 0,00 h 10,4 km/h (2 Bft)
07.12.2011 05:00 13,4 C 6,6 C 0,0 UV-I 0,0 C 54 % 88 % 0 % 1000,4 hPa 0,0 l/m 7,5 km/h (2 Bft) 0,00 h 0,00 h 10,9 km/h (2 Bft)
07.12.2011 06:00 13,4 C 7,0 C 0,0 UV-I 0,0 C 55 % 88 % 0 % 999,3 hPa 0,0 l/m 9,6 km/h (2 Bft) 0,00 h 0,13 h 14,7 km/h (3 Bft)
07.12.2011 07:00 13,4 C 7,3 C 0,0 UV-I 0,0 C 56 % 87 % 0 % 997,7 hPa 0,0 l/m 10,6 km/h (2 Bft) 0,00 h 0,17 h 13,3 km/h (3 Bft)
07.12.2011 08:00 13,3 C 7,4 C 0,0 UV-I 0,0 C 56 % 88 % 0 % 996,4 hPa 0,0 l/m 10,6 km/h (2 Bft) 0,00 h 0,10 h 15,8 km/h (3 Bft)
07.12.2011 09:00 13,4 C 7,8 C 0,0 UV-I 0,0 C 57 % 87 % 0 % 995,9 hPa 0,0 l/m 12,5 km/h (3 Bft) 0,00 h 0,10 h 17,7 km/h (3 Bft)
07.12.2011 10:00 13,5 C 7,8 C 0,0 UV-I 0,0 C 56 % 83 % 0 % 997,0 hPa 0,1 l/m 14,8 km/h (3 Bft) 0,00 h 0,47 h 20,0 km/h (4 Bft)
07.12.2011 11:00 13,6 C 7,8 C 0,2 UV-I 1,7 C 54 % 79 % 47 % 997,4 hPa 0,0 l/m 15,7 km/h (3 Bft) 0,17 h 0,00 h 21,0 km/h (4 Bft)
07.12.2011 12:00 13,8 C 8,2 C 0,3 UV-I 0,4 C 53 % 76 % 12 % 998,1 hPa 0,0 l/m 18,0 km/h (3 Bft) 0,00 h 0,00 h 25,6 km/h (4 Bft)
07.12.2011 13:00 13,9 C 7,2 C 0,1 UV-I 0,4 C 52 % 76 % 12 % 999,3 hPa 0,7 l/m 18,4 km/h (3 Bft) 0,07 h 0,53 h 24,1 km/h (4 Bft)
07.12.2011 14:00 14,1 C 6,2 C 0,0 UV-I 0,4 C 52 % 83 % 11 % 999,8 hPa 0,1 l/m 12,9 km/h (3 Bft) 0,00 h 0,10 h 17,7 km/h (3 Bft)
07.12.2011 15:00 14,4 C 7,2 C 0,0 UV-I 0,0 C 50 % 77 % 0 % 1000,6 hPa 0,1 l/m 15,7 km/h (3 Bft) 0,00 h 0,30 h 23,8 km/h (4 Bft)
07.12.2011 16:00 14,1 C 7,4 C 0,0 UV-I 0,0 C 48 % 69 % 0 % 1001,7 hPa 0,0 l/m 18,4 km/h (3 Bft) 0,00 h 0,07 h 24,0 km/h (4 Bft)
07.12.2011 17:00 13,8 C 7,4 C 0,0 UV-I 0,0 C 48 % 68 % 0 % 1002,5 hPa 0,0 l/m 18,9 km/h (3 Bft) 0,00 h 0,07 h 23,7 km/h (4 Bft)
07.12.2011 18:00 13,6 C 7,4 C 0,0 UV-I 0,0 C 47 % 67 % 0 % 1003,5 hPa 0,0 l/m 17,2 km/h (3 Bft) 0,00 h 0,10 h 22,3 km/h (4 Bft)
07.12.2011 19:00 13,6 C 7,2 C 0,0 UV-I 0,0 C 48 % 69 % 0 % 1004,8 hPa 0,0 l/m 15,5 km/h (3 Bft) 0,00 h 0,23 h 21,6 km/h (4 Bft)
07.12.2011 20:00 13,6 C 7,2 C 0,0 UV-I 0,0 C 47 % 66 % 0 % 1005,7 hPa 0,0 l/m 16,5 km/h (3 Bft) 0,00 h 0,00 h 23,1 km/h (4 Bft)
07.12.2011 21:00 13,6 C 7,3 C 0,0 UV-I 0,0 C 46 % 65 % 0 % 1007,0 hPa 0,0 l/m 17,5 km/h (3 Bft) 0,00 h 0,07 h 24,0 km/h (4 Bft)
07.12.2011 22:00 13,6 C 7,4 C 0,0 UV-I 0,0 C 46 % 65 % 0 % 1008,1 hPa 0,0 l/m 17,4 km/h (3 Bft) 0,00 h 0,10 h 23,8 km/h (4 Bft)
07.12.2011 23:00 13,6 C 7,4 C 0,0 UV-I 0,0 C 46 % 67 % 0 % 1009,5 hPa 0,0 l/m 17,6 km/h (3 Bft) 0,00 h 0,43 h 24,1 km/h (4 Bft)
08.12.2011 00:00 13,6 C 7,2 C 0,0 UV-I 0,0 C 46 % 68 % 0 % 1010,7 hPa 0,0 l/m 17,0 km/h (3 Bft) 0,00 h 0,00 h 23,6 km/h (4 Bft)
08.12.2011 01:00 13,6 C 6,8 C 0,0 UV-I 0,0 C 47 % 70 % 0 % 1011,9 hPa 0,0 l/m 15,1 km/h (3 Bft) 0,00 h 0,00 h 20,5 km/h (4 Bft)
08.12.2011 02:00 13,5 C 6,8 C 0,0 UV-I 0,0 C 47 % 71 % 0 % 1013,3 hPa 0,0 l/m 14,6 km/h (3 Bft) 0,00 h 0,00 h 20,6 km/h (4 Bft)
08.12.2011 03:00 13,5 C 6,5 C 0,0 UV-I 0,0 C 47 % 72 % 0 % 1014,8 hPa 0,0 l/m 12,9 km/h (3 Bft) 0,00 h 0,00 h 17,2 km/h (3 Bft)
08.12.2011 04:00 13,5 C 5,6 C 0,0 UV-I 0,0 C 48 % 75 % 0 % 1015,8 hPa 0,0 l/m 6,9 km/h (2 Bft) 0,00 h 0,00 h 8,8 km/h (2 Bft)
08.12.2011 05:00 13,4 C 4,9 C 0,0 UV-I 0,0 C 48 % 77 % 0 % 1016,7 hPa 0,0 l/m 7,8 km/h (2 Bft) 0,00 h 0,03 h 11,3 km/h (2 Bft)
08.12.2011 06:00 13,3 C 4,4 C 0,0 UV-I 0,0 C 48 % 79 % 0 % 1017,2 hPa 0,0 l/m 7,6 km/h (2 Bft) 0,00 h 0,07 h 11,0 km/h (2 Bft)
08.12.2011 07:00 13,1 C 4,0 C 0,0 UV-I 0,0 C 48 % 81 % 0 % 1017,8 hPa 0,0 l/m 6,0 km/h (2 Bft) 0,00 h 0,00 h 7,9 km/h (2 Bft)
08.12.2011 08:00 13,2 C 3,6 C 0,0 UV-I 0,0 C 48 % 82 % 0 % 1018,9 hPa 0,0 l/m 3,5 km/h (1 Bft) 0,00 h 0,03 h 5,6 km/h (1 Bft)
08.12.2011 09:00 13,2 C 3,9 C 0,0 UV-I 0,0 C 48 % 82 % 0 % 1019,8 hPa 0,0 l/m 4,1 km/h (1 Bft) 0,00 h 0,00 h 6,6 km/h (2 Bft)
08.12.2011 10:00 13,3 C 4,8 C 0,0 UV-I 0,0 C 48 % 81 % 0 % 1019,8 hPa 0,0 l/m 4,6 km/h (1 Bft) 0,00 h 0,00 h 7,3 km/h (2 Bft)
08.12.2011 11:00 13,5 C 5,6 C 0,0 UV-I 0,2 C 48 % 79 % 5 % 1019,1 hPa 0,0 l/m 5,5 km/h (1 Bft) 0,00 h 0,00 h 9,4 km/h (2 Bft)
08.12.2011 12:00 13,6 C 6,5 C 0,0 UV-I 0,1 C 48 % 78 % 4 % 1017,4 hPa 0,0 l/m 5,2 km/h (1 Bft) 0,00 h 0,07 h 7,3 km/h (2 Bft)
08.12.2011 13:00 13,7 C 7,9 C 0,0 UV-I 0,1 C 49 % 76 % 4 % 1016,2 hPa 0,0 l/m 8,7 km/h (2 Bft) 0,00 h 0,00 h 11,5 km/h (2 Bft)
08.12.2011 14:00 13,8 C 8,9 C 0,0 UV-I 0,0 C 50 % 74 % 0 % 1014,6 hPa 0,0 l/m 10,9 km/h (2 Bft) 0,00 h 0,00 h 16,1 km/h (3 Bft)
08.12.2011 15:00 13,9 C 9,5 C 0,0 UV-I 0,0 C 51 % 72 % 0 % 1013,0 hPa 0,0 l/m 11,3 km/h (2 Bft) 0,00 h 0,00 h 15,7 km/h (3 Bft)
08.12.2011 16:00 14,0 C 9,7 C 0,0 UV-I 0,0 C 51 % 73 % 0 % 1011,8 hPa 0,0 l/m 13,2 km/h (3 Bft) 0,00 h 0,00 h 19,1 km/h (3 Bft)
08.12.2011 17:00 14,0 C 9,9 C 0,0 UV-I 0,0 C 53 % 76 % 0 % 1010,5 hPa 0,0 l/m 14,9 km/h (3 Bft) 0,00 h 0,00 h 24,5 km/h (4 Bft)
08.12.2011 18:00 14,3 C 9,8 C 0,0 UV-I 0,0 C 54 % 78 % 0 % 1010,0 hPa 0,0 l/m 17,7 km/h (3 Bft) 0,00 h 0,00 h 21,9 km/h (4 Bft)
08.12.2011 19:00 14,4 C 10,0 C 0,0 UV-I 0,0 C 55 % 79 % 0 % 1008,7 hPa 0,0 l/m 16,3 km/h (3 Bft) 0,00 h 0,17 h 21,7 km/h (4 Bft)
08.12.2011 20:00 14,4 C 10,0 C 0,0 UV-I 0,0 C 56 % 82 % 0 % 1007,6 hPa 0,0 l/m 15,6 km/h (3 Bft) 0,00 h 0,27 h 20,9 km/h (4 Bft)
08.12.2011 21:00 14,4 C 9,6 C 0,0 UV-I 0,0 C 58 % 87 % 0 % 1006,6 hPa 1,1 l/m 13,6 km/h (3 Bft) 0,00 h 0,97 h 20,1 km/h (4 Bft)
08.12.2011 22:00 14,5 C 9,7 C 0,0 UV-I 0,0 C 60 % 89 % 0 % 1005,6 hPa 0,7 l/m 16,6 km/h (3 Bft) 0,00 h 0,47 h 27,1 km/h (4 Bft)
08.12.2011 23:00 14,7 C 10,6 C 0,0 UV-I 0,0 C 60 % 86 % 0 % 1004,2 hPa 0,0 l/m 18,7 km/h (3 Bft) 0,00 h 0,33 h 31,6 km/h (5 Bft)
09.12.2011 00:00 14,9 C 11,3 C 0,0 UV-I 0,0 C 60 % 83 % 0 % 1002,8 hPa 0,0 l/m 23,1 km/h (4 Bft) 0,00 h 0,27 h 34,1 km/h (5 Bft)
09.12.2011 01:00 15,0 C 11,4 C 0,0 UV-I 0,0 C 59 % 82 % 0 % 1002,1 hPa 0,5 l/m 19,4 km/h (3 Bft) 0,00 h 0,40 h 32,2 km/h (5 Bft)
09.12.2011 02:00 14,9 C 10,1 C 0,0 UV-I 0,0 C 61 % 86 % 0 % 1002,8 hPa 2,2 l/m 14,1 km/h (3 Bft) 0,00 h 0,33 h 24,0 km/h (4 Bft)
09.12.2011 03:00 14,6 C 8,2 C 0,0 UV-I 0,0 C 61 % 88 % 0 % 1004,1 hPa 1,2 l/m 9,0 km/h (2 Bft) 0,00 h 0,03 h 16,2 km/h (3 Bft)
09.12.2011 04:00 14,3 C 7,4 C 0,0 UV-I 0,0 C 58 % 85 % 0 % 1004,3 hPa 0,0 l/m 8,0 km/h (2 Bft) 0,00 h 0,00 h 14,7 km/h (3 Bft)
09.12.2011 05:00 14,2 C 7,4 C 0,0 UV-I 0,0 C 56 % 82 % 0 % 1004,8 hPa 0,0 l/m 10,2 km/h (2 Bft) 0,00 h 0,00 h 17,4 km/h (3 Bft)
09.12.2011 06:00 14,2 C 7,2 C 0,0 UV-I 0,0 C 54 % 77 % 0 % 1005,3 hPa 0,0 l/m 9,6 km/h (2 Bft) 0,00 h 0,00 h 16,8 km/h (3 Bft)
09.12.2011 07:00 14,0 C 6,9 C 0,0 UV-I 0,0 C 52 % 74 % 0 % 1006,0 hPa 0,0 l/m 8,8 km/h (2 Bft) 0,00 h 0,00 h 13,2 km/h (3 Bft)
09.12.2011 08:00 14,0 C 6,4 C 0,0 UV-I 0,0 C 52 % 76 % 0 % 1006,8 hPa 0,0 l/m 6,6 km/h (2 Bft) 0,00 h 0,00 h 14,8 km/h (3 Bft)
09.12.2011 09:00 13,9 C 6,1 C 0,0 UV-I 0,3 C 51 % 77 % 9 % 1007,6 hPa 0,0 l/m 8,5 km/h (2 Bft) 0,13 h 0,00 h 15,5 km/h (3 Bft)
09.12.2011 10:00 13,9 C 6,5 C 0,0 UV-I 2,7 C 50 % 74 % 77 % 1008,2 hPa 0,0 l/m 10,5 km/h (2 Bft) 1,00 h 0,00 h 17,1 km/h (3 Bft)
09.12.2011 11:00 14,0 C 7,1 C 0,2 UV-I 3,4 C 49 % 70 % 95 % 1008,7 hPa 0,0 l/m 11,4 km/h (2 Bft) 1,00 h 0,00 h 18,8 km/h (3 Bft)
09.12.2011 12:00 14,3 C 7,3 C 0,1 UV-I 1,6 C 47 % 67 % 45 % 1009,1 hPa 0,0 l/m 12,6 km/h (3 Bft) 0,23 h 0,00 h 17,9 km/h (3 Bft)
09.12.2011 13:00 14,5 C 7,2 C 0,1 UV-I 0,8 C 46 % 67 % 22 % 1009,0 hPa 0,0 l/m 9,4 km/h (2 Bft) 0,03 h 0,00 h 17,4 km/h (3 Bft)
09.12.2011 14:00 15,5 C 7,6 C 0,0 UV-I 2,6 C 44 % 64 % 75 % 1009,5 hPa 0,0 l/m 11,2 km/h (2 Bft) 0,83 h 0,00 h 21,6 km/h (4 Bft)
09.12.2011 15:00 15,5 C 6,9 C 0,0 UV-I 0,0 C 42 % 64 % 0 % 1009,6 hPa 0,0 l/m 10,2 km/h (2 Bft) 0,00 h 0,00 h 16,4 km/h (3 Bft)
09.12.2011 16:00 14,7 C 6,1 C 0,0 UV-I 0,0 C 43 % 66 % 0 % 1009,5 hPa 0,0 l/m 8,2 km/h (2 Bft) 0,00 h 0,00 h 13,8 km/h (3 Bft)
09.12.2011 17:00 14,1 C 5,5 C 0,0 UV-I 0,0 C 44 % 68 % 0 % 1009,7 hPa 0,0 l/m 5,2 km/h (1 Bft) 0,00 h 0,00 h 10,0 km/h (2 Bft)
09.12.2011 18:00 13,9 C 5,1 C 0,0 UV-I 0,0 C 45 % 69 % 0 % 1009,5 hPa 0,0 l/m 5,3 km/h (1 Bft) 0,00 h 0,00 h 9,4 km/h (2 Bft)
09.12.2011 19:00 13,7 C 4,8 C 0,0 UV-I 0,0 C 45 % 70 % 0 % 1009,8 hPa 0,0 l/m 4,9 km/h (1 Bft) 0,00 h 0,00 h 8,9 km/h (2 Bft)
09.12.2011 20:00 13,6 C 4,4 C 0,0 UV-I 0,0 C 45 % 72 % 0 % 1009,5 hPa 0,0 l/m 4,7 km/h (1 Bft) 0,00 h 0,00 h 9,5 km/h (2 Bft)
09.12.2011 21:00 13,6 C 4,4 C 0,0 UV-I 0,0 C 46 % 76 % 0 % 1009,5 hPa 0,0 l/m 4,3 km/h (1 Bft) 0,00 h 0,00 h 8,6 km/h (2 Bft)
09.12.2011 22:00 13,6 C 4,6 C 0,0 UV-I 0,0 C 47 % 79 % 0 % 1009,3 hPa 0,0 l/m 4,5 km/h (1 Bft) 0,00 h 0,10 h 8,1 km/h (2 Bft)
09.12.2011 23:00 13,6 C 5,1 C 0,0 UV-I 0,0 C 48 % 81 % 0 % 1009,9 hPa 0,0 l/m 5,5 km/h (1 Bft) 0,00 h 0,07 h 9,9 km/h (2 Bft)
10.12.2011 00:00 13,6 C 4,7 C 0,0 UV-I 0,0 C 49 % 82 % 0 % 1010,4 hPa 0,0 l/m 4,0 km/h (1 Bft) 0,00 h 0,00 h 8,9 km/h (2 Bft)
10.12.2011 01:00 13,6 C 4,1 C 0,0 UV-I 0,0 C 49 % 83 % 0 % 1010,4 hPa 0,0 l/m 1,8 km/h (1 Bft) 0,00 h 0,00 h 7,0 km/h (2 Bft)
10.12.2011 02:00 13,6 C 3,8 C 0,0 UV-I 0,0 C 49 % 84 % 0 % 1010,9 hPa 0,0 l/m 2,7 km/h (1 Bft) 0,00 h 0,00 h 5,8 km/h (2 Bft)
10.12.2011 03:00 13,6 C 3,3 C 0,0 UV-I 0,0 C 49 % 85 % 0 % 1011,3 hPa 0,0 l/m 1,6 km/h (1 Bft) 0,00 h 0,00 h 4,6 km/h (1 Bft)
10.12.2011 04:00 13,5 C 3,0 C 0,0 UV-I 0,0 C 49 % 86 % 0 % 1011,4 hPa 0,0 l/m 3,4 km/h (1 Bft) 0,00 h 0,00 h 6,4 km/h (2 Bft)
10.12.2011 05:00 13,4 C 2,8 C 0,0 UV-I 0,0 C 49 % 87 % 0 % 1011,7 hPa 0,0 l/m 3,5 km/h (1 Bft) 0,00 h 0,00 h 7,5 km/h (2 Bft)
10.12.2011 06:00 13,4 C 2,5 C 0,0 UV-I 0,0 C 49 % 88 % 0 % 1011,6 hPa 0,0 l/m 3,5 km/h (1 Bft) 0,00 h 0,00 h 6,9 km/h (2 Bft)
10.12.2011 07:00 13,2 C 2,3 C 0,0 UV-I 0,0 C 49 % 88 % 0 % 1011,9 hPa 0,0 l/m 5,6 km/h (1 Bft) 0,00 h 0,00 h 9,2 km/h (2 Bft)
10.12.2011 08:00 13,2 C 2,2 C 0,0 UV-I 0,0 C 49 % 88 % 0 % 1012,5 hPa 0,0 l/m 5,5 km/h (1 Bft) 0,00 h 0,00 h 11,9 km/h (2 Bft)
10.12.2011 09:00 13,1 C 2,2 C 0,0 UV-I 0,4 C 48 % 87 % 11 % 1013,0 hPa 0,0 l/m 4,4 km/h (1 Bft) 0,17 h 0,00 h 9,2 km/h (2 Bft)
10.12.2011 10:00 13,1 C 3,1 C 0,0 UV-I 3,6 C 48 % 86 % 94 % 1013,4 hPa 0,0 l/m 6,2 km/h (2 Bft) 0,97 h 0,00 h 10,4 km/h (2 Bft)
10.12.2011 11:00 13,1 C 4,5 C 0,1 UV-I 4,6 C 48 % 82 % 100 % 1013,6 hPa 0,0 l/m 7,5 km/h (2 Bft) 1,00 h 0,00 h 11,9 km/h (2 Bft)
10.12.2011 12:00 13,3 C 5,6 C 0,3 UV-I 4,1 C 48 % 77 % 96 % 1013,4 hPa 0,0 l/m 8,1 km/h (2 Bft) 0,97 h 0,00 h 16,8 km/h (3 Bft)
10.12.2011 13:00 13,6 C 5,7 C 0,2 UV-I 2,0 C 47 % 76 % 53 % 1013,5 hPa 0,0 l/m 8,7 km/h (2 Bft) 0,47 h 0,00 h 15,0 km/h (3 Bft)
10.12.2011 14:00 14,2 C 5,9 C 0,0 UV-I 2,4 C 46 % 74 % 68 % 1013,7 hPa 0,0 l/m 9,0 km/h (2 Bft) 0,80 h 0,00 h 16,9 km/h (3 Bft)
10.12.2011 15:00 14,3 C 5,7 C 0,0 UV-I 0,0 C 45 % 73 % 0 % 1013,6 hPa 0,0 l/m 7,5 km/h (2 Bft) 0,00 h 0,00 h 12,1 km/h (2 Bft)
10.12.2011 16:00 13,9 C 5,1 C 0,0 UV-I 0,0 C 45 % 74 % 0 % 1013,9 hPa 0,0 l/m 3,4 km/h (1 Bft) 0,00 h 0,00 h 7,0 km/h (2 Bft)
10.12.2011 17:00 13,6 C 4,5 C 0,0 UV-I 0,0 C 46 % 75 % 0 % 1014,3 hPa 0,0 l/m 3,2 km/h (1 Bft) 0,00 h 0,00 h 7,3 km/h (2 Bft)
10.12.2011 18:00 13,5 C 4,5 C 0,0 UV-I 0,0 C 46 % 75 % 0 % 1014,7 hPa 0,0 l/m 4,6 km/h (1 Bft) 0,00 h 0,00 h 9,3 km/h (2 Bft)
10.12.2011 19:00 13,4 C 4,4 C 0,0 UV-I 0,0 C 46 % 74 % 0 % 1015,0 hPa 0,0 l/m 3,8 km/h (1 Bft) 0,00 h 0,00 h 6,4 km/h (2 Bft)
10.12.2011 20:00 13,4 C 3,8 C 0,0 UV-I 0,0 C 46 % 75 % 0 % 1015,2 hPa 0,0 l/m 3,4 km/h (1 Bft) 0,00 h 0,00 h 7,7 km/h (2 Bft)
10.12.2011 21:00 13,4 C 3,3 C 0,0 UV-I 0,0 C 46 % 77 % 0 % 1015,6 hPa 0,0 l/m 2,9 km/h (1 Bft) 0,00 h 0,00 h 6,6 km/h (2 Bft)
10.12.2011 22:00 13,2 C 2,8 C 0,0 UV-I 0,0 C 46 % 79 % 0 % 1015,9 hPa 0,0 l/m 1,8 km/h (1 Bft) 0,00 h 0,00 h 5,0 km/h (1 Bft)
10.12.2011 23:00 13,2 C 2,1 C 0,0 UV-I 0,0 C 46 % 81 % 0 % 1016,1 hPa 0,0 l/m 1,5 km/h (1 Bft) 0,00 h 0,00 h 3,7 km/h (1 Bft)
11.12.2011 00:00 13,2 C 1,7 C 0,0 UV-I 0,0 C 46 % 82 % 0 % 1016,0 hPa 0,0 l/m 1,9 km/h (1 Bft) 0,00 h 0,00 h 6,1 km/h (2 Bft)
11.12.2011 01:00 13,2 C 1,5 C 0,0 UV-I 0,0 C 46 % 83 % 0 % 1016,1 hPa 0,0 l/m 1,6 km/h (1 Bft) 0,00 h 0,00 h 4,5 km/h (1 Bft)
11.12.2011 02:00 13,2 C 1,3 C 0,0 UV-I 0,0 C 46 % 85 % 0 % 1015,8 hPa 0,0 l/m 1,7 km/h (1 Bft) 0,00 h 0,00 h 5,3 km/h (1 Bft)
11.12.2011 03:00 13,1 C 1,3 C 0,0 UV-I 0,0 C 47 % 86 % 0 % 1015,8 hPa 0,0 l/m 1,3 km/h (1 Bft) 0,00 h 0,00 h 4,5 km/h (1 Bft)
11.12.2011 04:00 13,1 C 1,3 C 0,0 UV-I 0,0 C 47 % 86 % 0 % 1015,4 hPa 0,0 l/m 0,9 km/h (0 Bft) 0,00 h 0,00 h 1,4 km/h (1 Bft)
11.12.2011 05:00 13,1 C 1,4 C 0,0 UV-I 0,0 C 47 % 87 % 0 % 1015,2 hPa 0,0 l/m 1,1 km/h (1 Bft) 0,00 h 0,00 h 2,8 km/h (1 Bft)
11.12.2011 06:00 13,1 C 1,1 C 0,0 UV-I 0,0 C 47 % 87 % 0 % 1015,2 hPa 0,0 l/m 0,3 km/h (0 Bft) 0,00 h 0,00 h 1,4 km/h (1 Bft)
11.12.2011 07:00 13,1 C 0,2 C 0,0 UV-I 0,0 C 47 % 87 % 0 % 1015,2 hPa 0,0 l/m 1,9 km/h (1 Bft) 0,00 h 0,00 h 4,0 km/h (1 Bft)
11.12.2011 08:00 13,0 C -0,1 C 0,0 UV-I 0,0 C 47 % 89 % 0 % 1015,1 hPa 0,0 l/m 4,5 km/h (1 Bft) 0,00 h 0,00 h 8,5 km/h (2 Bft)
11.12.2011 09:00 13,0 C 0,4 C 0,0 UV-I 0,0 C 47 % 89 % 0 % 1015,1 hPa 0,0 l/m 4,5 km/h (1 Bft) 0,00 h 0,00 h 7,6 km/h (2 Bft)
11.12.2011 10:00 13,1 C 1,4 C 0,0 UV-I 0,0 C 47 % 89 % 0 % 1015,0 hPa 0,0 l/m 6,3 km/h (2 Bft) 0,00 h 0,00 h 11,0 km/h (2 Bft)
11.12.2011 11:00 13,3 C 3,1 C 0,1 UV-I 2,6 C 47 % 87 % 74 % 1014,8 hPa 0,0 l/m 6,4 km/h (2 Bft) 0,83 h 0,00 h 11,1 km/h (2 Bft)
11.12.2011 12:00 13,6 C 4,4 C 0,2 UV-I 1,2 C 46 % 84 % 35 % 1014,2 hPa 0,0 l/m 5,0 km/h (1 Bft) 0,07 h 0,00 h 8,3 km/h (2 Bft)
11.12.2011 13:00 14,0 C 5,3 C 0,2 UV-I 2,8 C 46 % 81 % 79 % 1013,6 hPa 0,0 l/m 5,4 km/h (1 Bft) 0,93 h 0,00 h 9,1 km/h (2 Bft)
11.12.2011 14:00 14,4 C 5,6 C 0,0 UV-I 0,9 C 45 % 78 % 27 % 1013,1 hPa 0,0 l/m 4,0 km/h (1 Bft) 0,23 h 0,00 h 7,6 km/h (2 Bft)
11.12.2011 15:00 14,3 C 4,9 C 0,0 UV-I 0,0 C 45 % 79 % 0 % 1012,5 hPa 0,0 l/m 3,0 km/h (1 Bft) 0,00 h 0,00 h 6,8 km/h (2 Bft)
11.12.2011 16:00 14,0 C 4,1 C 0,0 UV-I 0,0 C 46 % 80 % 0 % 1011,8 hPa 0,0 l/m 3,8 km/h (1 Bft) 0,00 h 0,00 h 6,7 km/h (2 Bft)
11.12.2011 17:00 13,7 C 3,3 C 0,0 UV-I 0,0 C 47 % 82 % 0 % 1011,0 hPa 0,0 l/m 2,8 km/h (1 Bft) 0,00 h 0,00 h 6,4 km/h (2 Bft)
11.12.2011 18:00 13,5 C 3,1 C 0,0 UV-I 0,0 C 47 % 83 % 0 % 1010,2 hPa 0,0 l/m 7,0 km/h (2 Bft) 0,00 h 0,00 h 11,3 km/h (2 Bft)
11.12.2011 19:00 13,5 C 3,3 C 0,0 UV-I 0,0 C 47 % 82 % 0 % 1009,3 hPa 0,0 l/m 8,2 km/h (2 Bft) 0,00 h 0,00 h 15,0 km/h (3 Bft)
11.12.2011 20:00 13,4 C 3,9 C 0,0 UV-I 0,0 C 47 % 81 % 0 % 1008,3 hPa 0,0 l/m 8,6 km/h (2 Bft) 0,00 h 0,00 h 12,9 km/h (3 Bft)
11.12.2011 21:00 13,5 C 4,2 C 0,0 UV-I 0,0 C 47 % 81 % 0 % 1007,3 hPa 0,0 l/m 9,4 km/h (2 Bft) 0,00 h 0,00 h 14,3 km/h (3 Bft)
11.12.2011 22:00 13,5 C 4,9 C 0,0 UV-I 0,0 C 47 % 81 % 0 % 1006,2 hPa 0,0 l/m 8,7 km/h (2 Bft) 0,00 h 0,00 h 14,8 km/h (3 Bft)
11.12.2011 23:00 13,6 C 5,5 C 0,0 UV-I 0,0 C 48 % 81 % 0 % 1005,5 hPa 0,0 l/m 8,8 km/h (2 Bft) 0,00 h 0,00 h 13,5 km/h (3 Bft)
Min-Datum _ 06.12.11 11.12.11 05.12.11 05.12.11 09.12.11 09.12.11 05.12.11 05.12.11 - 10.12.11 - - 05.12.11
_ Min-Zeit 07:30 07:50 00:00 00:00 15:16 14:28 00:00 00:04 - 23:22 - - 01:14
Minimum _ 12,8 C -0,1 C 0,0 UV-I 0,0 C 42 % 63 % 0 % 991,1 hPa - 0,0 km/h (0 Bft) - - 0,0 km/h (0 Bft)
Max-Datum _ 09.12.11 09.12.11 05.12.11 10.12.11 09.12.11 05.12.11 05.12.11 08.12.11 05.12.11 09.12.11 05.12.11 05.12.11 09.12.11
_ Max-Zeit 14:38 01:18 11:58 11:32 02:08 17:02 11:14 10:24 16:52 00:32 09:54 00:00 01:42
Maximum _ 15,8 C 11,7 C 0,5 UV-I 5,0 C 61 % 91 % 100 % 1019,9 hPa 3,8 l/m 25,3 km/h
NW (4 Bft)
0,03 h 0,03 h 64,2 km/h
W (8 Bft)
Durchschnitt _ 13,7 C 5,2 C 0,0 UV-I 0,3 C 50 % 81 % 8 % 1007,4 hPa #18,9 l/m 8,8 km/h (2 Bft) #12:44 h #13:24 h 13,3 km/h (3 Bft)
© 2012 W. Hausmann